sensor_id;sensor_type;location;lat;lon;timestamp;temperature;humidity
7972;DHT22;4031;49.758;6.120;2023-02-28T00:00:46;-5.00;99.90
7972;DHT22;4031;49.758;6.120;2023-02-28T00:03:12;-5.00;99.90
7972;DHT22;4031;49.758;6.120;2023-02-28T00:05:38;-5.00;99.90
7972;DHT22;4031;49.758;6.120;2023-02-28T00:08:04;-5.00;99.90
7972;DHT22;4031;49.758;6.120;2023-02-28T00:10:31;-5.00;99.90
7972;DHT22;4031;49.758;6.120;2023-02-28T00:13:04;-5.00;99.90
7972;DHT22;4031;49.758;6.120;2023-02-28T00:15:30;-5.00;99.90
7972;DHT22;4031;49.758;6.120;2023-02-28T00:17:57;-5.00;99.90
7972;DHT22;4031;49.758;6.120;2023-02-28T00:20:23;-5.00;99.90
7972;DHT22;4031;49.758;6.120;2023-02-28T00:22:51;-5.10;99.90
7972;DHT22;4031;49.758;6.120;2023-02-28T00:25:23;-5.10;99.90
7972;DHT22;4031;49.758;6.120;2023-02-28T00:27:50;-5.00;99.90
7972;DHT22;4031;49.758;6.120;2023-02-28T00:30:21;-5.10;99.90
7972;DHT22;4031;49.758;6.120;2023-02-28T00:32:48;-5.00;99.90
7972;DHT22;4031;49.758;6.120;2023-02-28T00:35:14;-5.20;99.90
7972;DHT22;4031;49.758;6.120;2023-02-28T00:37:41;-5.30;99.90
7972;DHT22;4031;49.758;6.120;2023-02-28T00:40:07;-5.30;99.90
7972;DHT22;4031;49.758;6.120;2023-02-28T00:42:35;-5.30;99.90
7972;DHT22;4031;49.758;6.120;2023-02-28T00:45:01;-5.30;99.90
7972;DHT22;4031;49.758;6.120;2023-02-28T00:47:29;-5.40;99.90
7972;DHT22;4031;49.758;6.120;2023-02-28T00:49:55;-5.40;99.90
7972;DHT22;4031;49.758;6.120;2023-02-28T00:52:20;-5.40;99.90
7972;DHT22;4031;49.758;6.120;2023-02-28T00:54:46;-5.30;99.90
7972;DHT22;4031;49.758;6.120;2023-02-28T00:57:12;-5.30;99.90
7972;DHT22;4031;49.758;6.120;2023-02-28T00:59:38;-5.30;99.90
7972;DHT22;4031;49.758;6.120;2023-02-28T01:02:04;-5.30;99.90
7972;DHT22;4031;49.758;6.120;2023-02-28T01:04:30;-5.30;99.90
7972;DHT22;4031;49.758;6.120;2023-02-28T01:06:55;-5.30;99.90
7972;DHT22;4031;49.758;6.120;2023-02-28T01:09:21;-5.40;99.90
7972;DHT22;4031;49.758;6.120;2023-02-28T01:11:47;-5.30;99.90
7972;DHT22;4031;49.758;6.120;2023-02-28T01:14:15;-5.20;99.90
7972;DHT22;4031;49.758;6.120;2023-02-28T01:16:42;-5.20;99.90
7972;DHT22;4031;49.758;6.120;2023-02-28T01:19:08;-5.20;99.90
7972;DHT22;4031;49.758;6.120;2023-02-28T01:21:33;-5.20;99.90
7972;DHT22;4031;49.758;6.120;2023-02-28T01:24:01;-5.20;99.90
7972;DHT22;4031;49.758;6.120;2023-02-28T01:26:27;-5.30;99.90
7972;DHT22;4031;49.758;6.120;2023-02-28T01:28:53;-5.30;99.90
7972;DHT22;4031;49.758;6.120;2023-02-28T01:31:20;-5.30;99.90
7972;DHT22;4031;49.758;6.120;2023-02-28T01:33:46;-5.30;99.90
7972;DHT22;4031;49.758;6.120;2023-02-28T01:36:17;-5.20;99.90
7972;DHT22;4031;49.758;6.120;2023-02-28T01:38:47;-5.20;99.90
7972;DHT22;4031;49.758;6.120;2023-02-28T01:41:19;-5.20;99.90
7972;DHT22;4031;49.758;6.120;2023-02-28T01:46:13;-5.30;99.90
7972;DHT22;4031;49.758;6.120;2023-02-28T01:48:56;-5.30;99.90
7972;DHT22;4031;49.758;6.120;2023-02-28T01:51:31;-5.10;99.90
7972;DHT22;4031;49.758;6.120;2023-02-28T01:54:07;-5.20;99.90
7972;DHT22;4031;49.758;6.120;2023-02-28T01:56:44;-5.20;99.90
7972;DHT22;4031;49.758;6.120;2023-02-28T01:59:20;-5.20;99.90
7972;DHT22;4031;49.758;6.120;2023-02-28T02:01:48;-5.20;99.90
7972;DHT22;4031;49.758;6.120;2023-02-28T02:04:14;-5.30;99.90
7972;DHT22;4031;49.758;6.120;2023-02-28T02:06:44;-5.30;99.90
7972;DHT22;4031;49.758;6.120;2023-02-28T02:09:11;-5.30;99.90
7972;DHT22;4031;49.758;6.120;2023-02-28T02:11:40;-5.30;99.90
7972;DHT22;4031;49.758;6.120;2023-02-28T02:17:04;-5.30;99.90
7972;DHT22;4031;49.758;6.120;2023-02-28T02:25:41;-5.50;99.90
7972;DHT22;4031;49.758;6.120;2023-02-28T02:31:50;-5.50;99.90
7972;DHT22;4031;49.758;6.120;2023-02-28T02:34:23;-5.40;99.90
7972;DHT22;4031;49.758;6.120;2023-02-28T02:40:14;-5.50;99.90
7972;DHT22;4031;49.758;6.120;2023-02-28T02:43:33;-5.50;99.90
7972;DHT22;4031;49.758;6.120;2023-02-28T02:45:56;-5.50;99.90
7972;DHT22;4031;49.758;6.120;2023-02-28T02:48:34;-5.40;99.90
7972;DHT22;4031;49.758;6.120;2023-02-28T02:51:06;-5.40;99.90
7972;DHT22;4031;49.758;6.120;2023-02-28T02:53:42;-5.50;99.90
7972;DHT22;4031;49.758;6.120;2023-02-28T02:56:16;-5.50;99.90
7972;DHT22;4031;49.758;6.120;2023-02-28T02:58:44;-5.60;99.90
7972;DHT22;4031;49.758;6.120;2023-02-28T03:01:16;-5.60;99.90
7972;DHT22;4031;49.758;6.120;2023-02-28T03:03:59;-5.50;99.90
7972;DHT22;4031;49.758;6.120;2023-02-28T03:06:27;-5.60;99.90
7972;DHT22;4031;49.758;6.120;2023-02-28T03:08:53;-5.60;99.90
7972;DHT22;4031;49.758;6.120;2023-02-28T03:11:20;-5.60;99.90
7972;DHT22;4031;49.758;6.120;2023-02-28T03:20:19;-5.50;99.90
7972;DHT22;4031;49.758;6.120;2023-02-28T03:23:13;-5.50;99.90
7972;DHT22;4031;49.758;6.120;2023-02-28T03:25:54;-5.50;99.90
7972;DHT22;4031;49.758;6.120;2023-02-28T03:31:30;-5.50;99.90
7972;DHT22;4031;49.758;6.120;2023-02-28T03:34:15;-5.50;99.90
7972;DHT22;4031;49.758;6.120;2023-02-28T03:36:48;-5.60;99.90
7972;DHT22;4031;49.758;6.120;2023-02-28T03:39:22;-5.40;99.90
7972;DHT22;4031;49.758;6.120;2023-02-28T03:42:09;-5.30;99.90
7972;DHT22;4031;49.758;6.120;2023-02-28T03:50:48;-4.90;99.90
7972;DHT22;4031;49.758;6.120;2023-02-28T03:53:42;-4.70;99.90
7972;DHT22;4031;49.758;6.120;2023-02-28T04:00:03;-4.50;99.90
7972;DHT22;4031;49.758;6.120;2023-02-28T04:02:32;-4.50;99.90
7972;DHT22;4031;49.758;6.120;2023-02-28T04:04:59;-4.50;99.90
7972;DHT22;4031;49.758;6.120;2023-02-28T04:07:29;-4.50;99.90
7972;DHT22;4031;49.758;6.120;2023-02-28T04:09:56;-4.50;99.90
7972;DHT22;4031;49.758;6.120;2023-02-28T04:12:21;-4.50;99.90
7972;DHT22;4031;49.758;6.120;2023-02-28T04:14:49;-4.60;99.90
7972;DHT22;4031;49.758;6.120;2023-02-28T04:17:15;-4.70;99.90
7972;DHT22;4031;49.758;6.120;2023-02-28T04:19:42;-4.80;99.90
7972;DHT22;4031;49.758;6.120;2023-02-28T04:22:09;-4.80;99.90
7972;DHT22;4031;49.758;6.120;2023-02-28T04:24:35;-4.70;99.90
7972;DHT22;4031;49.758;6.120;2023-02-28T04:27:02;-4.50;99.90
7972;DHT22;4031;49.758;6.120;2023-02-28T04:29:30;-4.60;99.90
7972;DHT22;4031;49.758;6.120;2023-02-28T04:31:58;-4.50;99.90
7972;DHT22;4031;49.758;6.120;2023-02-28T04:34:26;-4.40;99.90
7972;DHT22;4031;49.758;6.120;2023-02-28T04:36:54;-4.40;99.90
7972;DHT22;4031;49.758;6.120;2023-02-28T04:39:24;-4.30;99.90
7972;DHT22;4031;49.758;6.120;2023-02-28T04:45:31;-4.40;99.90
7972;DHT22;4031;49.758;6.120;2023-02-28T04:47:59;-4.50;99.90
7972;DHT22;4031;49.758;6.120;2023-02-28T04:50:24;-4.70;99.90
7972;DHT22;4031;49.758;6.120;2023-02-28T04:52:50;-4.80;99.90
7972;DHT22;4031;49.758;6.120;2023-02-28T04:55:16;-4.90;99.90
7972;DHT22;4031;49.758;6.120;2023-02-28T04:57:41;-4.90;99.90
7972;DHT22;4031;49.758;6.120;2023-02-28T05:00:09;-4.90;99.90
7972;DHT22;4031;49.758;6.120;2023-02-28T05:02:38;-4.90;99.90
7972;DHT22;4031;49.758;6.120;2023-02-28T05:05:05;-5.00;99.90
7972;DHT22;4031;49.758;6.120;2023-02-28T05:07:30;-5.00;99.90
7972;DHT22;4031;49.758;6.120;2023-02-28T05:09:56;-5.10;99.90
7972;DHT22;4031;49.758;6.120;2023-02-28T05:12:22;-5.20;99.90
7972;DHT22;4031;49.758;6.120;2023-02-28T05:14:47;-5.20;99.90
7972;DHT22;4031;49.758;6.120;2023-02-28T05:17:13;-5.30;99.90
7972;DHT22;4031;49.758;6.120;2023-02-28T05:19:39;-5.30;99.90
7972;DHT22;4031;49.758;6.120;2023-02-28T05:22:04;-5.30;99.90
7972;DHT22;4031;49.758;6.120;2023-02-28T05:24:41;-5.40;99.90
7972;DHT22;4031;49.758;6.120;2023-02-28T05:27:08;-5.40;99.90
7972;DHT22;4031;49.758;6.120;2023-02-28T05:29:33;-5.40;99.90
7972;DHT22;4031;49.758;6.120;2023-02-28T05:31:59;-5.40;99.90
7972;DHT22;4031;49.758;6.120;2023-02-28T05:34:25;-5.50;99.90
7972;DHT22;4031;49.758;6.120;2023-02-28T05:36:51;-5.50;99.90
7972;DHT22;4031;49.758;6.120;2023-02-28T05:39:16;-5.60;99.90
7972;DHT22;4031;49.758;6.120;2023-02-28T05:41:43;-5.60;99.90
7972;DHT22;4031;49.758;6.120;2023-02-28T05:44:09;-5.70;99.90
7972;DHT22;4031;49.758;6.120;2023-02-28T05:46:35;-5.70;99.90
7972;DHT22;4031;49.758;6.120;2023-02-28T05:49:01;-5.70;99.90
7972;DHT22;4031;49.758;6.120;2023-02-28T05:51:28;-5.70;99.90
7972;DHT22;4031;49.758;6.120;2023-02-28T05:53:54;-5.60;99.90
7972;DHT22;4031;49.758;6.120;2023-02-28T05:56:20;-5.50;99.90
7972;DHT22;4031;49.758;6.120;2023-02-28T05:58:45;-5.50;99.90
7972;DHT22;4031;49.758;6.120;2023-02-28T06:04:03;-5.50;99.90
7972;DHT22;4031;49.758;6.120;2023-02-28T06:06:30;-5.60;99.90
7972;DHT22;4031;49.758;6.120;2023-02-28T06:08:56;-5.70;99.90
7972;DHT22;4031;49.758;6.120;2023-02-28T06:11:22;-5.60;99.90
7972;DHT22;4031;49.758;6.120;2023-02-28T06:13:54;-5.70;99.90
7972;DHT22;4031;49.758;6.120;2023-02-28T06:16:21;-5.70;99.90
7972;DHT22;4031;49.758;6.120;2023-02-28T06:18:48;-5.70;99.90
7972;DHT22;4031;49.758;6.120;2023-02-28T06:21:13;-5.70;99.90
7972;DHT22;4031;49.758;6.120;2023-02-28T06:23:39;-5.70;99.90
7972;DHT22;4031;49.758;6.120;2023-02-28T06:26:05;-5.70;99.90
7972;DHT22;4031;49.758;6.120;2023-02-28T06:28:31;-5.50;99.90
7972;DHT22;4031;49.758;6.120;2023-02-28T06:30:57;-5.60;99.90
7972;DHT22;4031;49.758;6.120;2023-02-28T06:33:23;-5.40;99.90
7972;DHT22;4031;49.758;6.120;2023-02-28T06:35:52;-5.30;99.90
7972;DHT22;4031;49.758;6.120;2023-02-28T06:38:18;-5.30;99.90
7972;DHT22;4031;49.758;6.120;2023-02-28T06:40:44;-5.20;99.90
7972;DHT22;4031;49.758;6.120;2023-02-28T06:43:10;-5.20;99.90
7972;DHT22;4031;49.758;6.120;2023-02-28T06:45:44;-5.10;99.90
7972;DHT22;4031;49.758;6.120;2023-02-28T06:48:10;-5.10;99.90
7972;DHT22;4031;49.758;6.120;2023-02-28T06:50:36;-5.00;99.90
7972;DHT22;4031;49.758;6.120;2023-02-28T06:53:02;-5.00;99.90
7972;DHT22;4031;49.758;6.120;2023-02-28T06:55:28;-4.90;99.90
7972;DHT22;4031;49.758;6.120;2023-02-28T06:57:54;-4.80;99.90
7972;DHT22;4031;49.758;6.120;2023-02-28T07:00:20;-4.70;99.90
7972;DHT22;4031;49.758;6.120;2023-02-28T07:02:46;-4.70;99.90
7972;DHT22;4031;49.758;6.120;2023-02-28T07:05:12;-4.60;99.90
7972;DHT22;4031;49.758;6.120;2023-02-28T07:07:38;-4.50;99.90
7972;DHT22;4031;49.758;6.120;2023-02-28T07:10:10;-4.30;99.90
7972;DHT22;4031;49.758;6.120;2023-02-28T07:12:36;-4.30;99.90
7972;DHT22;4031;49.758;6.120;2023-02-28T07:15:04;-4.20;99.90
7972;DHT22;4031;49.758;6.120;2023-02-28T07:17:30;-4.10;99.90
7972;DHT22;4031;49.758;6.120;2023-02-28T07:19:56;-4.00;99.90
7972;DHT22;4031;49.758;6.120;2023-02-28T07:22:21;-3.90;99.90
7972;DHT22;4031;49.758;6.120;2023-02-28T07:24:47;-3.80;99.90
7972;DHT22;4031;49.758;6.120;2023-02-28T07:27:13;-3.50;99.90
7972;DHT22;4031;49.758;6.120;2023-02-28T07:29:49;-3.40;99.90
7972;DHT22;4031;49.758;6.120;2023-02-28T07:32:15;-3.40;99.90
7972;DHT22;4031;49.758;6.120;2023-02-28T07:34:41;-3.40;99.90
7972;DHT22;4031;49.758;6.120;2023-02-28T07:37:07;-3.30;99.90
7972;DHT22;4031;49.758;6.120;2023-02-28T07:39:32;-3.30;99.90
7972;DHT22;4031;49.758;6.120;2023-02-28T07:41:58;-3.30;99.90
7972;DHT22;4031;49.758;6.120;2023-02-28T07:44:25;-3.20;99.90
7972;DHT22;4031;49.758;6.120;2023-02-28T07:46:51;-3.10;99.90
7972;DHT22;4031;49.758;6.120;2023-02-28T07:49:18;-3.00;99.90
7972;DHT22;4031;49.758;6.120;2023-02-28T07:51:44;-2.80;99.90
7972;DHT22;4031;49.758;6.120;2023-02-28T07:54:10;-2.70;99.90
7972;DHT22;4031;49.758;6.120;2023-02-28T07:56:35;-2.60;99.90
7972;DHT22;4031;49.758;6.120;2023-02-28T07:59:01;-2.50;99.90
7972;DHT22;4031;49.758;6.120;2023-02-28T08:01:27;-2.30;99.90
7972;DHT22;4031;49.758;6.120;2023-02-28T08:03:53;-1.90;99.90
7972;DHT22;4031;49.758;6.120;2023-02-28T08:06:22;-1.50;99.90
7972;DHT22;4031;49.758;6.120;2023-02-28T08:08:49;-0.80;99.90
7972;DHT22;4031;49.758;6.120;2023-02-28T08:11:16;-0.20;99.90
7972;DHT22;4031;49.758;6.120;2023-02-28T08:13:43;0.40;99.90
7972;DHT22;4031;49.758;6.120;2023-02-28T08:16:11;0.80;99.90
7972;DHT22;4031;49.758;6.120;2023-02-28T08:18:42;1.20;99.90
7972;DHT22;4031;49.758;6.120;2023-02-28T08:21:09;1.60;99.90
7972;DHT22;4031;49.758;6.120;2023-02-28T08:23:36;1.90;99.90
7972;DHT22;4031;49.758;6.120;2023-02-28T08:26:02;2.50;99.90
7972;DHT22;4031;49.758;6.120;2023-02-28T08:28:29;3.10;99.90
7972;DHT22;4031;49.758;6.120;2023-02-28T08:30:55;3.50;99.90
7972;DHT22;4031;49.758;6.120;2023-02-28T08:33:21;3.80;99.90
7972;DHT22;4031;49.758;6.120;2023-02-28T08:35:48;3.80;99.90
7972;DHT22;4031;49.758;6.120;2023-02-28T08:38:13;4.20;99.90
7972;DHT22;4031;49.758;6.120;2023-02-28T08:40:39;4.60;99.90
7972;DHT22;4031;49.758;6.120;2023-02-28T08:43:05;5.10;99.90
7972;DHT22;4031;49.758;6.120;2023-02-28T08:45:31;5.80;99.90
7972;DHT22;4031;49.758;6.120;2023-02-28T08:47:57;6.40;99.90
7972;DHT22;4031;49.758;6.120;2023-02-28T08:50:23;7.10;99.90
7972;DHT22;4031;49.758;6.120;2023-02-28T08:52:48;7.30;99.90
7972;DHT22;4031;49.758;6.120;2023-02-28T08:55:14;7.00;99.90
7972;DHT22;4031;49.758;6.120;2023-02-28T08:57:40;7.40;99.90
7972;DHT22;4031;49.758;6.120;2023-02-28T09:00:06;7.50;99.90
7972;DHT22;4031;49.758;6.120;2023-02-28T09:02:33;8.30;99.90
7972;DHT22;4031;49.758;6.120;2023-02-28T09:04:59;8.50;99.90
7972;DHT22;4031;49.758;6.120;2023-02-28T09:07:25;8.90;99.90
7972;DHT22;4031;49.758;6.120;2023-02-28T09:09:51;9.10;99.90
7972;DHT22;4031;49.758;6.120;2023-02-28T09:12:24;9.20;99.90
7972;DHT22;4031;49.758;6.120;2023-02-28T09:14:51;9.30;99.90
7972;DHT22;4031;49.758;6.120;2023-02-28T09:17:17;9.30;99.90
7972;DHT22;4031;49.758;6.120;2023-02-28T09:19:44;9.30;99.90
7972;DHT22;4031;49.758;6.120;2023-02-28T09:22:10;9.30;99.90
7972;DHT22;4031;49.758;6.120;2023-02-28T09:24:37;9.80;99.90
7972;DHT22;4031;49.758;6.120;2023-02-28T09:27:03;9.50;99.90
7972;DHT22;4031;49.758;6.120;2023-02-28T09:29:31;10.00;99.90
7972;DHT22;4031;49.758;6.120;2023-02-28T09:31:57;10.40;99.90
7972;DHT22;4031;49.758;6.120;2023-02-28T09:34:25;10.00;99.90
7972;DHT22;4031;49.758;6.120;2023-02-28T09:36:51;10.20;99.90
7972;DHT22;4031;49.758;6.120;2023-02-28T09:39:20;10.50;99.90
7972;DHT22;4031;49.758;6.120;2023-02-28T09:41:50;10.60;99.90
7972;DHT22;4031;49.758;6.120;2023-02-28T09:44:38;10.70;99.90
7972;DHT22;4031;49.758;6.120;2023-02-28T09:47:12;11.40;99.90
7972;DHT22;4031;49.758;6.120;2023-02-28T09:49:46;11.70;99.90
7972;DHT22;4031;49.758;6.120;2023-02-28T09:52:23;11.50;99.90
7972;DHT22;4031;49.758;6.120;2023-02-28T09:54:52;11.50;99.90
7972;DHT22;4031;49.758;6.120;2023-02-28T10:00:17;11.40;96.70
7972;DHT22;4031;49.758;6.120;2023-02-28T10:05:59;10.50;93.00
7972;DHT22;4031;49.758;6.120;2023-02-28T10:09:02;10.30;91.50
7972;DHT22;4031;49.758;6.120;2023-02-28T10:11:32;10.40;89.50
7972;DHT22;4031;49.758;6.120;2023-02-28T10:14:27;10.50;88.50
7972;DHT22;4031;49.758;6.120;2023-02-28T10:17:26;10.70;90.40
7972;DHT22;4031;49.758;6.120;2023-02-28T10:20:02;10.70;88.60
7972;DHT22;4031;49.758;6.120;2023-02-28T10:22:53;10.70;82.20
7972;DHT22;4031;49.758;6.120;2023-02-28T10:25:26;11.00;84.90
7972;DHT22;4031;49.758;6.120;2023-02-28T10:28:28;10.60;77.90
7972;DHT22;4031;49.758;6.120;2023-02-28T10:30:51;10.30;80.10
7972;DHT22;4031;49.758;6.120;2023-02-28T10:33:25;10.60;77.60
7972;DHT22;4031;49.758;6.120;2023-02-28T10:35:53;11.10;79.00
7972;DHT22;4031;49.758;6.120;2023-02-28T10:38:25;11.40;77.40
7972;DHT22;4031;49.758;6.120;2023-02-28T10:41:08;11.80;80.80
7972;DHT22;4031;49.758;6.120;2023-02-28T10:43:36;11.70;77.40
7972;DHT22;4031;49.758;6.120;2023-02-28T10:49:00;11.70;76.10
7972;DHT22;4031;49.758;6.120;2023-02-28T10:51:38;11.10;73.70
7972;DHT22;4031;49.758;6.120;2023-02-28T10:54:05;11.50;73.80
7972;DHT22;4031;49.758;6.120;2023-02-28T10:56:32;11.60;73.90
7972;DHT22;4031;49.758;6.120;2023-02-28T10:59:02;11.40;70.70
7972;DHT22;4031;49.758;6.120;2023-02-28T11:01:41;10.50;70.50
7972;DHT22;4031;49.758;6.120;2023-02-28T11:07:00;9.50;70.50
7972;DHT22;4031;49.758;6.120;2023-02-28T11:09:55;8.60;70.70
7972;DHT22;4031;49.758;6.120;2023-02-28T11:12:29;7.40;70.80
7972;DHT22;4031;49.758;6.120;2023-02-28T11:15:02;7.00;73.20
7972;DHT22;4031;49.758;6.120;2023-02-28T11:17:40;6.90;72.60
7972;DHT22;4031;49.758;6.120;2023-02-28T11:20:18;6.30;71.80
7972;DHT22;4031;49.758;6.120;2023-02-28T11:22:47;6.10;73.70
7972;DHT22;4031;49.758;6.120;2023-02-28T11:25:23;5.80;76.50
7972;DHT22;4031;49.758;6.120;2023-02-28T11:27:52;5.80;75.80
7972;DHT22;4031;49.758;6.120;2023-02-28T11:30:33;5.90;76.30
7972;DHT22;4031;49.758;6.120;2023-02-28T11:33:27;6.40;76.00
7972;DHT22;4031;49.758;6.120;2023-02-28T11:39:04;6.40;76.00
7972;DHT22;4031;49.758;6.120;2023-02-28T11:41:53;6.40;78.80
7972;DHT22;4031;49.758;6.120;2023-02-28T11:45:37;7.30;76.50
7972;DHT22;4031;49.758;6.120;2023-02-28T11:48:16;7.70;78.60
7972;DHT22;4031;49.758;6.120;2023-02-28T11:57:00;7.10;78.40
7972;DHT22;4031;49.758;6.120;2023-02-28T12:05:44;7.60;80.90
7972;DHT22;4031;49.758;6.120;2023-02-28T12:14:06;7.80;79.20
7972;DHT22;4031;49.758;6.120;2023-02-28T12:26:04;5.80;79.20
7972;DHT22;4031;49.758;6.120;2023-02-28T12:29:01;5.80;78.90
7972;DHT22;4031;49.758;6.120;2023-02-28T12:31:36;5.90;80.40
7972;DHT22;4031;49.758;6.120;2023-02-28T12:34:08;5.90;81.60
7972;DHT22;4031;49.758;6.120;2023-02-28T12:36:37;5.70;81.40
7972;DHT22;4031;49.758;6.120;2023-02-28T12:39:12;5.50;80.60
7972;DHT22;4031;49.758;6.120;2023-02-28T12:41:50;5.70;82.00
7972;DHT22;4031;49.758;6.120;2023-02-28T12:47:12;5.80;80.50
7972;DHT22;4031;49.758;6.120;2023-02-28T12:49:49;6.20;80.70
7972;DHT22;4031;49.758;6.120;2023-02-28T12:52:27;6.20;80.80
7972;DHT22;4031;49.758;6.120;2023-02-28T13:07:29;5.50;82.70
7972;DHT22;4031;49.758;6.120;2023-02-28T13:10:16;5.00;82.80
7972;DHT22;4031;49.758;6.120;2023-02-28T13:12:53;4.70;83.30
7972;DHT22;4031;49.758;6.120;2023-02-28T13:15:27;4.90;82.50
7972;DHT22;4031;49.758;6.120;2023-02-28T13:17:58;5.20;82.80
7972;DHT22;4031;49.758;6.120;2023-02-28T13:20:33;5.30;83.20
7972;DHT22;4031;49.758;6.120;2023-02-28T13:23:00;5.40;82.00
7972;DHT22;4031;49.758;6.120;2023-02-28T13:27:58;6.30;81.20
7972;DHT22;4031;49.758;6.120;2023-02-28T13:33:25;7.20;81.20
7972;DHT22;4031;49.758;6.120;2023-02-28T13:38:43;6.90;81.40
7972;DHT22;4031;49.758;6.120;2023-02-28T13:46:32;6.10;80.40
7972;DHT22;4031;49.758;6.120;2023-02-28T13:49:38;6.00;81.60
7972;DHT22;4031;49.758;6.120;2023-02-28T13:57:57;6.60;82.20
7972;DHT22;4031;49.758;6.120;2023-02-28T14:03:49;5.90;80.20
7972;DHT22;4031;49.758;6.120;2023-02-28T14:06:33;5.60;81.60
7972;DHT22;4031;49.758;6.120;2023-02-28T14:09:19;5.70;83.00
7972;DHT22;4031;49.758;6.120;2023-02-28T14:11:49;5.50;79.80
7972;DHT22;4031;49.758;6.120;2023-02-28T14:17:07;5.50;82.00
7972;DHT22;4031;49.758;6.120;2023-02-28T14:19:38;5.50;79.50
7972;DHT22;4031;49.758;6.120;2023-02-28T14:25:33;5.00;83.10
7972;DHT22;4031;49.758;6.120;2023-02-28T14:28:37;5.80;81.30
7972;DHT22;4031;49.758;6.120;2023-02-28T14:31:23;7.30;84.60
7972;DHT22;4031;49.758;6.120;2023-02-28T14:36:53;9.00;80.00
7972;DHT22;4031;49.758;6.120;2023-02-28T14:39:22;8.90;79.50
7972;DHT22;4031;49.758;6.120;2023-02-28T14:41:49;9.00;78.30
7972;DHT22;4031;49.758;6.120;2023-02-28T14:44:19;9.40;80.40
7972;DHT22;4031;49.758;6.120;2023-02-28T14:46:56;8.90;77.50
7972;DHT22;4031;49.758;6.120;2023-02-28T14:49:28;8.10;75.60
7972;DHT22;4031;49.758;6.120;2023-02-28T14:52:19;7.10;73.40
7972;DHT22;4031;49.758;6.120;2023-02-28T14:54:52;6.70;75.70
7972;DHT22;4031;49.758;6.120;2023-02-28T14:57:31;7.10;77.10
7972;DHT22;4031;49.758;6.120;2023-02-28T15:00:04;7.30;76.20
7972;DHT22;4031;49.758;6.120;2023-02-28T15:02:37;7.40;76.80
7972;DHT22;4031;49.758;6.120;2023-02-28T15:07:35;7.30;77.20
7972;DHT22;4031;49.758;6.120;2023-02-28T15:12:39;6.60;76.30
7972;DHT22;4031;49.758;6.120;2023-02-28T15:15:13;6.50;75.90
7972;DHT22;4031;49.758;6.120;2023-02-28T15:17:42;6.90;78.30
7972;DHT22;4031;49.758;6.120;2023-02-28T15:20:12;7.30;77.50
7972;DHT22;4031;49.758;6.120;2023-02-28T15:22:39;7.60;77.80
7972;DHT22;4031;49.758;6.120;2023-02-28T15:25:06;7.70;76.60
7972;DHT22;4031;49.758;6.120;2023-02-28T15:27:45;7.90;77.40
7972;DHT22;4031;49.758;6.120;2023-02-28T15:30:29;8.10;77.60
7972;DHT22;4031;49.758;6.120;2023-02-28T15:33:18;8.30;77.50
7972;DHT22;4031;49.758;6.120;2023-02-28T15:35:46;8.30;77.20
7972;DHT22;4031;49.758;6.120;2023-02-28T15:38:26;8.10;76.30
7972;DHT22;4031;49.758;6.120;2023-02-28T15:40:54;7.80;75.40
7972;DHT22;4031;49.758;6.120;2023-02-28T15:43:31;7.70;75.10
7972;DHT22;4031;49.758;6.120;2023-02-28T15:46:06;7.60;75.00
7972;DHT22;4031;49.758;6.120;2023-02-28T15:48:51;7.50;74.90
7972;DHT22;4031;49.758;6.120;2023-02-28T15:51:31;7.30;76.10
7972;DHT22;4031;49.758;6.120;2023-02-28T15:54:07;7.40;77.20
7972;DHT22;4031;49.758;6.120;2023-02-28T15:56:43;7.20;75.70
7972;DHT22;4031;49.758;6.120;2023-02-28T15:59:26;7.20;76.80
7972;DHT22;4031;49.758;6.120;2023-02-28T16:02:32;7.20;75.00
7972;DHT22;4031;49.758;6.120;2023-02-28T16:07:35;6.90;73.90
7972;DHT22;4031;49.758;6.120;2023-02-28T16:10:02;6.90;75.70
7972;DHT22;4031;49.758;6.120;2023-02-28T16:12:30;6.80;76.30
7972;DHT22;4031;49.758;6.120;2023-02-28T16:14:59;6.60;75.50
7972;DHT22;4031;49.758;6.120;2023-02-28T16:17:38;6.70;75.50
7972;DHT22;4031;49.758;6.120;2023-02-28T16:22:40;6.20;76.90
7972;DHT22;4031;49.758;6.120;2023-02-28T16:25:15;5.80;76.20
7972;DHT22;4031;49.758;6.120;2023-02-28T16:27:45;5.40;75.60
7972;DHT22;4031;49.758;6.120;2023-02-28T16:30:23;5.00;78.30
7972;DHT22;4031;49.758;6.120;2023-02-28T16:32:51;4.60;78.40
7972;DHT22;4031;49.758;6.120;2023-02-28T16:35:19;4.30;79.50
7972;DHT22;4031;49.758;6.120;2023-02-28T16:37:45;4.10;78.90
7972;DHT22;4031;49.758;6.120;2023-02-28T16:40:15;3.80;79.40
7972;DHT22;4031;49.758;6.120;2023-02-28T16:42:44;3.60;80.40
7972;DHT22;4031;49.758;6.120;2023-02-28T16:45:20;3.40;79.50
7972;DHT22;4031;49.758;6.120;2023-02-28T16:47:48;3.30;81.10
7972;DHT22;4031;49.758;6.120;2023-02-28T16:52:45;2.90;82.60
7972;DHT22;4031;49.758;6.120;2023-02-28T16:55:11;2.80;83.70
7972;DHT22;4031;49.758;6.120;2023-02-28T16:57:38;2.60;83.70
7972;DHT22;4031;49.758;6.120;2023-02-28T17:00:06;2.60;84.80
7972;DHT22;4031;49.758;6.120;2023-02-28T17:02:35;2.50;85.10
7972;DHT22;4031;49.758;6.120;2023-02-28T17:05:01;2.30;86.10
7972;DHT22;4031;49.758;6.120;2023-02-28T17:07:27;2.20;87.00
7972;DHT22;4031;49.758;6.120;2023-02-28T17:09:53;2.00;88.00
7972;DHT22;4031;49.758;6.120;2023-02-28T17:12:18;1.80;89.50
7972;DHT22;4031;49.758;6.120;2023-02-28T17:14:44;1.60;90.70
7972;DHT22;4031;49.758;6.120;2023-02-28T17:17:18;1.50;91.10
7972;DHT22;4031;49.758;6.120;2023-02-28T17:19:46;1.30;92.10
7972;DHT22;4031;49.758;6.120;2023-02-28T17:22:11;1.10;93.30
7972;DHT22;4031;49.758;6.120;2023-02-28T17:24:37;0.90;94.40
7972;DHT22;4031;49.758;6.120;2023-02-28T17:27:03;0.70;96.00
7972;DHT22;4031;49.758;6.120;2023-02-28T17:29:29;0.50;96.40
7972;DHT22;4031;49.758;6.120;2023-02-28T17:31:55;0.30;98.70
7972;DHT22;4031;49.758;6.120;2023-02-28T17:34:21;0.20;99.90
7972;DHT22;4031;49.758;6.120;2023-02-28T17:36:49;0.10;99.90
7972;DHT22;4031;49.758;6.120;2023-02-28T17:39:17;-0.10;99.90
7972;DHT22;4031;49.758;6.120;2023-02-28T17:41:50;-0.20;99.90
7972;DHT22;4031;49.758;6.120;2023-02-28T17:44:17;-0.30;99.90
7972;DHT22;4031;49.758;6.120;2023-02-28T17:46:45;-0.50;99.90
7972;DHT22;4031;49.758;6.120;2023-02-28T17:49:11;-0.50;99.90
7972;DHT22;4031;49.758;6.120;2023-02-28T17:51:37;-0.60;99.90
7972;DHT22;4031;49.758;6.120;2023-02-28T17:54:02;-0.70;99.90
7972;DHT22;4031;49.758;6.120;2023-02-28T17:56:28;-0.80;99.90
7972;DHT22;4031;49.758;6.120;2023-02-28T17:58:56;-0.90;99.90
7972;DHT22;4031;49.758;6.120;2023-02-28T18:01:23;-1.00;99.90
7972;DHT22;4031;49.758;6.120;2023-02-28T18:03:52;-1.20;99.90
7972;DHT22;4031;49.758;6.120;2023-02-28T18:06:27;-1.30;99.90
7972;DHT22;4031;49.758;6.120;2023-02-28T18:08:55;-1.30;99.90
7972;DHT22;4031;49.758;6.120;2023-02-28T18:11:22;-1.40;99.90
7972;DHT22;4031;49.758;6.120;2023-02-28T18:13:51;-1.40;99.90
7972;DHT22;4031;49.758;6.120;2023-02-28T18:16:18;-1.50;99.90
7972;DHT22;4031;49.758;6.120;2023-02-28T18:18:46;-1.50;99.90
7972;DHT22;4031;49.758;6.120;2023-02-28T18:21:14;-1.50;99.90
7972;DHT22;4031;49.758;6.120;2023-02-28T18:23:41;-1.50;99.90
7972;DHT22;4031;49.758;6.120;2023-02-28T18:26:14;-1.60;99.90
7972;DHT22;4031;49.758;6.120;2023-02-28T18:28:41;-1.50;99.90
7972;DHT22;4031;49.758;6.120;2023-02-28T18:31:11;-1.70;99.90
7972;DHT22;4031;49.758;6.120;2023-02-28T18:33:40;-1.80;99.90
7972;DHT22;4031;49.758;6.120;2023-02-28T18:36:07;-1.80;99.90
7972;DHT22;4031;49.758;6.120;2023-02-28T18:38:33;-1.80;99.90
7972;DHT22;4031;49.758;6.120;2023-02-28T18:41:01;-1.80;99.90
7972;DHT22;4031;49.758;6.120;2023-02-28T18:43:30;-1.80;99.90
7972;DHT22;4031;49.758;6.120;2023-02-28T18:45:57;-1.80;99.90
7972;DHT22;4031;49.758;6.120;2023-02-28T18:48:23;-1.80;99.90
7972;DHT22;4031;49.758;6.120;2023-02-28T18:50:49;-1.80;99.90
7972;DHT22;4031;49.758;6.120;2023-02-28T18:53:16;-1.90;99.90
7972;DHT22;4031;49.758;6.120;2023-02-28T18:55:43;-1.90;99.90